sensor_id;sensor_type;location;lat;lon;timestamp;pressure;altitude;pressure_sealevel;temperature;humidity
36380;BME280;22411;53.016;18.632;2022-09-21T00:00:49;101095.63;;;9.48;100.00
36380;BME280;22411;53.016;18.632;2022-09-21T00:03:27;101101.63;;;9.48;100.00
36380;BME280;22411;53.016;18.632;2022-09-21T00:06:01;101100.63;;;9.51;100.00
36380;BME280;22411;53.016;18.632;2022-09-21T00:08:27;101098.97;;;9.50;100.00
36380;BME280;22411;53.016;18.632;2022-09-21T00:10:52;101101.47;;;9.51;100.00
36380;BME280;22411;53.016;18.632;2022-09-21T00:13:18;101097.13;;;9.52;100.00
36380;BME280;22411;53.016;18.632;2022-09-21T00:15:45;101095.63;;;9.48;100.00
36380;BME280;22411;53.016;18.632;2022-09-21T00:18:11;101101.56;;;9.50;100.00
36380;BME280;22411;53.016;18.632;2022-09-21T00:20:40;101098.97;;;9.50;100.00
36380;BME280;22411;53.016;18.632;2022-09-21T00:23:08;101104.31;;;9.47;100.00
36380;BME280;22411;53.016;18.632;2022-09-21T00:25:34;101095.63;;;9.48;100.00
36380;BME280;22411;53.016;18.632;2022-09-21T00:28:00;101109.47;;;9.47;100.00
36380;BME280;22411;53.016;18.632;2022-09-21T00:30:26;101103.47;;;9.46;100.00
36380;BME280;22411;53.016;18.632;2022-09-21T00:32:53;101105.13;;;9.47;100.00
36380;BME280;22411;53.016;18.632;2022-09-21T00:35:19;101097.38;;;9.47;100.00
36380;BME280;22411;53.016;18.632;2022-09-21T00:37:44;101110.22;;;9.49;100.00
36380;BME280;22411;53.016;18.632;2022-09-21T00:40:10;101099.03;;;9.48;100.00
36380;BME280;22411;53.016;18.632;2022-09-21T00:42:37;101099.81;;;9.50;100.00
36380;BME280;22411;53.016;18.632;2022-09-21T00:45:04;101106.81;;;9.48;100.00
36380;BME280;22411;53.016;18.632;2022-09-21T00:47:34;101102.41;;;9.50;100.00
36380;BME280;22411;53.016;18.632;2022-09-21T00:50:22;101108.41;;;9.51;100.00
36380;BME280;22411;53.016;18.632;2022-09-21T00:52:52;101106.31;;;9.57;100.00
36380;BME280;22411;53.016;18.632;2022-09-21T00:55:30;101111.63;;;9.54;100.00
36380;BME280;22411;53.016;18.632;2022-09-21T00:58:02;101115.91;;;9.55;100.00
36380;BME280;22411;53.016;18.632;2022-09-21T01:00:29;101117.75;;;9.53;100.00
36380;BME280;22411;53.016;18.632;2022-09-21T01:02:55;101115.91;;;9.55;100.00
36380;BME280;22411;53.016;18.632;2022-09-21T01:05:29;101115.16;;;9.53;100.00
36380;BME280;22411;53.016;18.632;2022-09-21T01:07:56;101118.66;;;9.52;100.00
36380;BME280;22411;53.016;18.632;2022-09-21T01:10:25;101121.34;;;9.51;100.00
36380;BME280;22411;53.016;18.632;2022-09-21T01:13:07;101123.09;;;9.50;100.00
36380;BME280;22411;53.016;18.632;2022-09-21T01:18:45;101123.50;;;9.42;100.00
36380;BME280;22411;53.016;18.632;2022-09-21T01:21:22;101121.16;;;9.38;100.00
36380;BME280;22411;53.016;18.632;2022-09-21T01:29:35;101124.91;;;9.32;100.00
36380;BME280;22411;53.016;18.632;2022-09-21T01:34:59;101127.00;;;9.26;100.00
36380;BME280;22411;53.016;18.632;2022-09-21T01:37:52;101128.06;;;9.22;100.00
36380;BME280;22411;53.016;18.632;2022-09-21T01:40:23;101130.59;;;9.23;100.00
36380;BME280;22411;53.016;18.632;2022-09-21T01:42:51;101132.41;;;9.21;100.00
36380;BME280;22411;53.016;18.632;2022-09-21T01:45:24;101131.66;;;9.19;100.00
36380;BME280;22411;53.016;18.632;2022-09-21T01:47:54;101137.75;;;9.18;100.00
36380;BME280;22411;53.016;18.632;2022-09-21T01:50:21;101134.38;;;9.16;100.00
36380;BME280;22411;53.016;18.632;2022-09-21T01:52:52;101137.16;;;9.13;100.00
36380;BME280;22411;53.016;18.632;2022-09-21T01:55:24;101142.38;;;9.11;100.00
36380;BME280;22411;53.016;18.632;2022-09-21T01:58:00;101134.56;;;9.13;100.00
36380;BME280;22411;53.016;18.632;2022-09-21T02:00:29;101140.56;;;9.13;100.00
36380;BME280;22411;53.016;18.632;2022-09-21T02:03:39;101142.38;;;9.11;100.00
36380;BME280;22411;53.016;18.632;2022-09-21T02:06:08;101149.16;;;9.14;100.00
36380;BME280;22411;53.016;18.632;2022-09-21T02:08:35;101148.16;;;9.16;100.00
36380;BME280;22411;53.016;18.632;2022-09-21T02:11:03;101148.97;;;9.17;100.00
36380;BME280;22411;53.016;18.632;2022-09-21T02:13:36;101152.44;;;9.18;100.00
36380;BME280;22411;53.016;18.632;2022-09-21T02:21:12;101156.59;;;9.20;100.00
36380;BME280;22411;53.016;18.632;2022-09-21T02:26:34;101156.00;;;9.15;100.00
36380;BME280;22411;53.016;18.632;2022-09-21T02:29:19;101145.81;;;9.12;100.00
36380;BME280;22411;53.016;18.632;2022-09-21T02:31:54;101149.41;;;9.09;100.00
36380;BME280;22411;53.016;18.632;2022-09-21T02:34:27;101145.16;;;9.08;100.00
36380;BME280;22411;53.016;18.632;2022-09-21T02:39:39;101152.53;;;8.99;100.00
36380;BME280;22411;53.016;18.632;2022-09-21T02:42:10;101158.78;;;8.95;100.00
36380;BME280;22411;53.016;18.632;2022-09-21T02:44:41;101161.28;;;8.96;100.00
36380;BME280;22411;53.016;18.632;2022-09-21T02:50:11;101161.75;;;8.87;100.00
36380;BME280;22411;53.016;18.632;2022-09-21T02:52:41;101167.84;;;8.86;100.00
36380;BME280;22411;53.016;18.632;2022-09-21T02:55:09;101162.59;;;8.87;100.00
36380;BME280;22411;53.016;18.632;2022-09-21T02:57:36;101171.00;;;8.91;100.00
36380;BME280;22411;53.016;18.632;2022-09-21T03:00:04;101169.44;;;8.88;100.00
36380;BME280;22411;53.016;18.632;2022-09-21T03:02:42;101179.03;;;8.86;100.00
36380;BME280;22411;53.016;18.632;2022-09-21T03:05:10;101181.66;;;8.85;100.00
36380;BME280;22411;53.016;18.632;2022-09-21T03:07:37;101177.41;;;8.84;100.00
36380;BME280;22411;53.016;18.632;2022-09-21T03:10:03;101183.41;;;8.84;100.00
36380;BME280;22411;53.016;18.632;2022-09-21T03:12:30;101183.28;;;8.87;100.00
36380;BME280;22411;53.016;18.632;2022-09-21T03:14:57;101186.09;;;8.83;100.00
36380;BME280;22411;53.016;18.632;2022-09-21T03:17:24;101187.06;;;8.80;100.00
36380;BME280;22411;53.016;18.632;2022-09-21T03:19:50;101192.41;;;8.77;100.00
36380;BME280;22411;53.016;18.632;2022-09-21T03:22:22;101188.91;;;8.78;100.00
36380;BME280;22411;53.016;18.632;2022-09-21T03:24:49;101183.03;;;8.75;100.00
36380;BME280;22411;53.016;18.632;2022-09-21T03:27:18;101193.47;;;8.73;100.00
36380;BME280;22411;53.016;18.632;2022-09-21T03:29:45;101190.88;;;8.73;100.00
36380;BME280;22411;53.016;18.632;2022-09-21T03:32:12;101186.84;;;8.68;100.00
36380;BME280;22411;53.016;18.632;2022-09-21T03:34:39;101189.56;;;8.64;100.00
36380;BME280;22411;53.016;18.632;2022-09-21T03:37:06;101196.50;;;8.64;100.00
36380;BME280;22411;53.016;18.632;2022-09-21T03:39:32;101186.25;;;8.62;100.00
36380;BME280;22411;53.016;18.632;2022-09-21T03:41:59;101197.41;;;8.63;100.00
36380;BME280;22411;53.016;18.632;2022-09-21T03:44:25;101191.56;;;8.59;100.00
36380;BME280;22411;53.016;18.632;2022-09-21T03:46:52;101193.47;;;8.56;100.00
36380;BME280;22411;53.016;18.632;2022-09-21T03:49:18;101188.38;;;8.54;100.00
36380;BME280;22411;53.016;18.632;2022-09-21T03:51:44;101189.44;;;8.50;100.00
36380;BME280;22411;53.016;18.632;2022-09-21T03:54:10;101190.28;;;8.51;100.00
36380;BME280;22411;53.016;18.632;2022-09-21T03:56:36;101194.00;;;8.45;100.00
36380;BME280;22411;53.016;18.632;2022-09-21T03:59:02;101194.91;;;8.44;100.00
36380;BME280;22411;53.016;18.632;2022-09-21T04:01:28;101193.22;;;8.43;100.00
36380;BME280;22411;53.016;18.632;2022-09-21T04:03:54;101195.13;;;8.40;100.00
36380;BME280;22411;53.016;18.632;2022-09-21T04:06:20;101206.13;;;8.43;100.00
36380;BME280;22411;53.016;18.632;2022-09-21T04:08:46;101199.28;;;8.42;100.00
36380;BME280;22411;53.016;18.632;2022-09-21T04:11:14;101206.22;;;8.42;100.00
36380;BME280;22411;53.016;18.632;2022-09-21T04:13:41;101208.72;;;8.43;100.00
36380;BME280;22411;53.016;18.632;2022-09-21T04:16:08;101210.53;;;8.41;100.00
36380;BME280;22411;53.016;18.632;2022-09-21T04:18:35;101207.88;;;8.43;100.00
36380;BME280;22411;53.016;18.632;2022-09-21T04:21:03;101202.88;;;8.40;100.00
36380;BME280;22411;53.016;18.632;2022-09-21T04:23:30;101213.00;;;8.44;100.00
36380;BME280;22411;53.016;18.632;2022-09-21T04:25:56;101216.47;;;8.43;100.00
36380;BME280;22411;53.016;18.632;2022-09-21T04:28:23;101214.66;;;8.45;100.00
36380;BME280;22411;53.016;18.632;2022-09-21T04:30:52;101217.31;;;8.44;100.00
36380;BME280;22411;53.016;18.632;2022-09-21T04:33:19;101226.88;;;8.42;100.00
36380;BME280;22411;53.016;18.632;2022-09-21T04:35:45;101228.50;;;8.44;100.00
36380;BME280;22411;53.016;18.632;2022-09-21T04:38:11;101224.22;;;8.43;100.00
36380;BME280;22411;53.016;18.632;2022-09-21T04:40:38;101225.91;;;8.44;100.00
36380;BME280;22411;53.016;18.632;2022-09-21T04:43:05;101222.50;;;8.44;100.00
36380;BME280;22411;53.016;18.632;2022-09-21T04:45:31;101229.31;;;8.45;100.00
36380;BME280;22411;53.016;18.632;2022-09-21T04:47:58;101226.75;;;8.45;100.00
36380;BME280;22411;53.016;18.632;2022-09-21T04:50:23;101232.56;;;8.48;100.00
36380;BME280;22411;53.016;18.632;2022-09-21T04:52:50;101235.25;;;8.47;100.00
36380;BME280;22411;53.016;18.632;2022-09-21T04:55:15;101241.25;;;8.47;100.00
36380;BME280;22411;53.016;18.632;2022-09-21T04:57:42;101243.81;;;8.47;100.00
36380;BME280;22411;53.016;18.632;2022-09-21T05:00:09;101238.66;;;8.47;100.00
36380;BME280;22411;53.016;18.632;2022-09-21T05:02:35;101244.00;;;8.44;100.00
36380;BME280;22411;53.016;18.632;2022-09-21T05:05:01;101250.97;;;8.42;100.00
36380;BME280;22411;53.016;18.632;2022-09-21T05:07:27;101250.22;;;8.40;100.00
36380;BME280;22411;53.016;18.632;2022-09-21T05:09:53;101250.34;;;8.37;100.00
36380;BME280;22411;53.016;18.632;2022-09-21T05:12:32;101250.34;;;8.37;100.00
36380;BME280;22411;53.016;18.632;2022-09-21T05:14:59;101251.31;;;8.34;100.00
36380;BME280;22411;53.016;18.632;2022-09-21T05:17:25;101252.28;;;8.32;100.00
36380;BME280;22411;53.016;18.632;2022-09-21T05:19:52;101270.16;;;8.36;100.00
36380;BME280;22411;53.016;18.632;2022-09-21T05:22:18;101266.81;;;8.34;100.00
36380;BME280;22411;53.016;18.632;2022-09-21T05:24:45;101271.91;;;8.36;100.00
36380;BME280;22411;53.016;18.632;2022-09-21T05:27:11;101274.28;;;8.41;100.00
36380;BME280;22411;53.016;18.632;2022-09-21T05:29:39;101270.50;;;8.48;100.00
36380;BME280;22411;53.016;18.632;2022-09-21T05:35:11;101273.59;;;8.73;100.00
36380;BME280;22411;53.016;18.632;2022-09-21T05:37:56;101275.66;;;8.84;100.00
36380;BME280;22411;53.016;18.632;2022-09-21T05:40:24;101278.63;;;8.94;100.00
36380;BME280;22411;53.016;18.632;2022-09-21T05:42:50;101279.09;;;9.02;100.00
36380;BME280;22411;53.016;18.632;2022-09-21T05:45:17;101279.66;;;9.07;100.00
36380;BME280;22411;53.016;18.632;2022-09-21T05:47:46;101281.16;;;9.12;100.00
36380;BME280;22411;53.016;18.632;2022-09-21T05:50:27;101278.91;;;9.22;100.00
36380;BME280;22411;53.016;18.632;2022-09-21T05:58:39;101290.09;;;9.40;100.00
36380;BME280;22411;53.016;18.632;2022-09-21T06:03:51;101283.31;;;9.55;100.00
36380;BME280;22411;53.016;18.632;2022-09-21T06:06:19;101287.22;;;9.62;100.00
36380;BME280;22411;53.016;18.632;2022-09-21T06:08:45;101287.22;;;9.62;100.00
36380;BME280;22411;53.016;18.632;2022-09-21T06:11:12;101291.34;;;9.66;100.00
36380;BME280;22411;53.016;18.632;2022-09-21T06:13:38;101303.28;;;9.68;100.00
36380;BME280;22411;53.016;18.632;2022-09-21T06:16:06;101299.63;;;9.73;100.00
36380;BME280;22411;53.016;18.632;2022-09-21T06:18:39;101297.72;;;9.76;100.00
36380;BME280;22411;53.016;18.632;2022-09-21T06:21:06;101299.28;;;9.79;100.00
36380;BME280;22411;53.016;18.632;2022-09-21T06:23:33;101303.50;;;9.81;100.00
36380;BME280;22411;53.016;18.632;2022-09-21T06:25:59;101304.81;;;9.88;100.00
36380;BME280;22411;53.016;18.632;2022-09-21T06:28:25;101292.63;;;9.90;100.00
36380;BME280;22411;53.016;18.632;2022-09-21T06:30:54;101301.75;;;9.98;100.00
36380;BME280;22411;53.016;18.632;2022-09-21T06:33:20;101299.53;;;10.07;100.00
36380;BME280;22411;53.016;18.632;2022-09-21T06:35:58;101302.28;;;10.20;100.00
36380;BME280;22411;53.016;18.632;2022-09-21T06:38:26;101306.22;;;10.27;100.00
36380;BME280;22411;53.016;18.632;2022-09-21T06:40:53;101309.25;;;10.35;100.00
36380;BME280;22411;53.016;18.632;2022-09-21T06:43:19;101315.69;;;10.44;100.00
36380;BME280;22411;53.016;18.632;2022-09-21T06:45:55;101318.25;;;10.60;100.00
36380;BME280;22411;53.016;18.632;2022-09-21T06:48:21;101312.78;;;10.80;100.00
36380;BME280;22411;53.016;18.632;2022-09-21T06:50:47;101318.44;;;11.03;100.00
36380;BME280;22411;53.016;18.632;2022-09-21T06:53:13;101320.06;;;11.19;100.00
36380;BME280;22411;53.016;18.632;2022-09-21T06:55:40;101320.94;;;11.34;100.00
36380;BME280;22411;53.016;18.632;2022-09-21T06:58:06;101318.34;;;11.48;100.00
36380;BME280;22411;53.016;18.632;2022-09-21T07:00:31;101316.41;;;11.66;100.00
36380;BME280;22411;53.016;18.632;2022-09-21T07:02:58;101323.13;;;11.85;100.00
36380;BME280;22411;53.016;18.632;2022-09-21T07:05:24;101326.44;;;12.01;100.00
36380;BME280;22411;53.016;18.632;2022-09-21T07:07:50;101326.16;;;11.91;100.00
36380;BME280;22411;53.016;18.632;2022-09-21T07:10:20;101333.63;;;11.97;100.00
36380;BME280;22411;53.016;18.632;2022-09-21T07:12:46;101334.34;;;11.85;100.00
36380;BME280;22411;53.016;18.632;2022-09-21T07:15:14;101333.13;;;11.76;100.00
36380;BME280;22411;53.016;18.632;2022-09-21T07:17:40;101327.44;;;11.70;100.00
36380;BME280;22411;53.016;18.632;2022-09-21T07:20:08;101328.38;;;11.69;100.00
36380;BME280;22411;53.016;18.632;2022-09-21T07:22:34;101338.59;;;11.72;100.00
36380;BME280;22411;53.016;18.632;2022-09-21T07:25:01;101337.28;;;11.79;100.00
36380;BME280;22411;53.016;18.632;2022-09-21T07:27:29;101347.00;;;11.75;100.00
36380;BME280;22411;53.016;18.632;2022-09-21T07:29:56;101341.53;;;11.80;100.00
36380;BME280;22411;53.016;18.632;2022-09-21T07:32:22;101346.38;;;11.86;100.00
36380;BME280;22411;53.016;18.632;2022-09-21T07:34:48;101342.78;;;12.03;100.00
36380;BME280;22411;53.016;18.632;2022-09-21T07:37:14;101353.63;;;12.10;100.00
36380;BME280;22411;53.016;18.632;2022-09-21T07:39:40;101345.56;;;12.00;100.00
36380;BME280;22411;53.016;18.632;2022-09-21T07:42:06;101338.72;;;11.99;100.00
36380;BME280;22411;53.016;18.632;2022-09-21T07:44:32;101347.72;;;12.08;100.00
36380;BME280;22411;53.016;18.632;2022-09-21T07:46:59;101346.84;;;12.21;100.00
36380;BME280;22411;53.016;18.632;2022-09-21T07:49:26;101349.47;;;12.48;100.00
36380;BME280;22411;53.016;18.632;2022-09-21T07:51:52;101354.84;;;12.60;100.00
36380;BME280;22411;53.016;18.632;2022-09-21T07:54:18;101350.72;;;12.70;100.00
36380;BME280;22411;53.016;18.632;2022-09-21T07:56:45;101351.78;;;12.67;100.00
36380;BME280;22411;53.016;18.632;2022-09-21T07:59:30;101347.03;;;12.60;100.00
36380;BME280;22411;53.016;18.632;2022-09-21T08:01:58;101346.66;;;12.66;100.00
36380;BME280;22411;53.016;18.632;2022-09-21T08:04:24;101349.50;;;12.75;100.00
36380;BME280;22411;53.016;18.632;2022-09-21T08:06:51;101354.13;;;12.85;100.00
36380;BME280;22411;53.016;18.632;2022-09-21T08:09:17;101348.44;;;12.92;100.00
36380;BME280;22411;53.016;18.632;2022-09-21T08:11:42;101348.56;;;13.03;100.00
36380;BME280;22411;53.016;18.632;2022-09-21T08:14:09;101343.59;;;13.13;100.00
36380;BME280;22411;53.016;18.632;2022-09-21T08:16:36;101342.81;;;13.38;100.00
36380;BME280;22411;53.016;18.632;2022-09-21T08:19:04;101343.38;;;13.56;100.00
36380;BME280;22411;53.016;18.632;2022-09-21T08:21:29;101345.97;;;13.69;100.00
36380;BME280;22411;53.016;18.632;2022-09-21T08:23:55;101351.06;;;13.70;100.00
36380;BME280;22411;53.016;18.632;2022-09-21T08:26:22;101345.22;;;13.79;100.00
36380;BME280;22411;53.016;18.632;2022-09-21T08:28:51;101354.38;;;13.85;100.00
36380;BME280;22411;53.016;18.632;2022-09-21T08:31:19;101357.91;;;13.97;100.00
36380;BME280;22411;53.016;18.632;2022-09-21T08:33:48;101350.44;;;13.92;100.00
36380;BME280;22411;53.016;18.632;2022-09-21T08:36:16;101353.13;;;13.91;100.00
36380;BME280;22411;53.016;18.632;2022-09-21T08:38:42;101353.13;;;13.91;100.00
36380;BME280;22411;53.016;18.632;2022-09-21T08:43:51;101361.69;;;13.67;100.00
36380;BME280;22411;53.016;18.632;2022-09-21T08:46:20;101362.22;;;13.72;100.00
36380;BME280;22411;53.016;18.632;2022-09-21T08:48:53;101361.38;;;13.72;100.00
36380;BME280;22411;53.016;18.632;2022-09-21T08:51:22;101357.22;;;13.69;100.00
36380;BME280;22411;53.016;18.632;2022-09-21T08:53:54;101363.06;;;13.73;100.00
36380;BME280;22411;53.016;18.632;2022-09-21T08:56:24;101365.66;;;13.98;100.00
36380;BME280;22411;53.016;18.632;2022-09-21T08:58:50;101359.69;;;14.58;100.00
36380;BME280;22411;53.016;18.632;2022-09-21T09:25:41;101356.97;;;17.61;100.00
36380;BME280;22411;53.016;18.632;2022-09-21T09:28:25;101364.44;;;17.24;100.00
36380;BME280;22411;53.016;18.632;2022-09-21T09:31:05;101360.50;;;16.54;100.00
36380;BME280;22411;53.016;18.632;2022-09-21T09:36:32;101369.69;;;15.24;100.00
36380;BME280;22411;53.016;18.632;2022-09-21T09:39:04;101371.16;;;14.93;100.00
36380;BME280;22411;53.016;18.632;2022-09-21T09:50:29;101364.41;;;14.53;100.00
36380;BME280;22411;53.016;18.632;2022-09-21T09:53:16;101361.06;;;14.38;100.00
36380;BME280;22411;53.016;18.632;2022-09-21T09:55:45;101373.06;;;14.41;100.00
36380;BME280;22411;53.016;18.632;2022-09-21T10:00:50;101363.31;;;14.93;100.00
36380;BME280;22411;53.016;18.632;2022-09-21T10:03:20;101360.34;;;15.32;100.00
36380;BME280;22411;53.016;18.632;2022-09-21T10:05:46;101360.53;;;15.53;100.00
36380;BME280;22411;53.016;18.632;2022-09-21T10:11:01;101369.25;;;15.76;100.00
36380;BME280;22411;53.016;18.632;2022-09-21T10:13:29;101370.31;;;15.85;100.00
36380;BME280;22411;53.016;18.632;2022-09-21T10:18:33;101366.78;;;16.19;100.00
36380;BME280;22411;53.016;18.632;2022-09-21T10:21:05;101363.59;;;16.59;100.00
36380;BME280;22411;53.016;18.632;2022-09-21T10:23:32;101369.25;;;16.87;100.00
36380;BME280;22411;53.016;18.632;2022-09-21T10:28:28;101363.22;;;17.07;100.00
36380;BME280;22411;53.016;18.632;2022-09-21T10:31:16;101369.34;;;16.96;100.00
36380;BME280;22411;53.016;18.632;2022-09-21T10:33:52;101369.59;;;16.93;100.00
36380;BME280;22411;53.016;18.632;2022-09-21T10:36:32;101376.13;;;16.99;100.00
36380;BME280;22411;53.016;18.632;2022-09-21T10:42:13;101368.41;;;16.32;100.00
36380;BME280;22411;53.016;18.632;2022-09-21T10:44:44;101365.56;;;15.67;100.00
36380;BME280;22411;53.016;18.632;2022-09-21T10:49:51;101371.56;;;15.46;100.00
36380;BME280;22411;53.016;18.632;2022-09-21T10:52:21;101375.09;;;15.44;100.00
36380;BME280;22411;53.016;18.632;2022-09-21T10:54:51;101369.84;;;15.68;100.00
36380;BME280;22411;53.016;18.632;2022-09-21T10:57:21;101378.91;;;15.98;100.00
36380;BME280;22411;53.016;18.632;2022-09-21T10:59:48;101373.66;;;16.09;100.00
36380;BME280;22411;53.016;18.632;2022-09-21T11:05:15;101367.72;;;16.30;100.00
36380;BME280;22411;53.016;18.632;2022-09-21T11:08:15;101370.28;;;16.52;100.00
36380;BME280;22411;53.016;18.632;2022-09-21T11:11:03;101365.28;;;17.24;100.00
36380;BME280;22411;53.016;18.632;2022-09-21T11:17:02;101365.88;;;18.60;100.00
36380;BME280;22411;53.016;18.632;2022-09-21T11:19:27;101369.75;;;18.66;100.00
36380;BME280;22411;53.016;18.632;2022-09-21T11:22:21;101376.44;;;18.20;100.00
36380;BME280;22411;53.016;18.632;2022-09-21T11:27:35;101374.00;;;16.93;100.00
36380;BME280;22411;53.016;18.632;2022-09-21T11:30:16;101374.59;;;16.42;100.00
36380;BME280;22411;53.016;18.632;2022-09-21T11:41:07;101369.97;;;14.36;100.00
36380;BME280;22411;53.016;18.632;2022-09-21T11:43:56;101371.56;;;14.13;100.00
36380;BME280;22411;53.016;18.632;2022-09-21T11:47:05;101373.84;;;14.18;100.00
36380;BME280;22411;53.016;18.632;2022-09-21T11:55:17;101362.81;;;13.76;100.00
36380;BME280;22411;53.016;18.632;2022-09-21T11:57:59;101359.81;;;13.56;100.00
36380;BME280;22411;53.016;18.632;2022-09-21T12:00:33;101367.53;;;13.45;100.00
36380;BME280;22411;53.016;18.632;2022-09-21T12:10:51;101355.41;;;13.31;100.00
36380;BME280;22411;53.016;18.632;2022-09-21T12:13:37;101351.16;;;13.43;100.00
36380;BME280;22411;53.016;18.632;2022-09-21T12:21:41;101348.22;;;16.66;100.00
36380;BME280;22411;53.016;18.632;2022-09-21T12:24:15;101345.31;;;19.14;100.00
36380;BME280;22411;53.016;18.632;2022-09-21T12:26:50;101353.09;;;21.26;100.00
36380;BME280;22411;53.016;18.632;2022-09-21T12:29:34;101355.53;;;23.70;80.70
36380;BME280;22411;53.016;18.632;2022-09-21T12:32:24;101352.72;;;28.05;60.41
36380;BME280;22411;53.016;18.632;2022-09-21T12:34:57;101346.03;;;26.48;58.29
36380;BME280;22411;53.016;18.632;2022-09-21T12:37:32;101345.84;;;25.01;65.22
36380;BME280;22411;53.016;18.632;2022-09-21T12:43:09;101339.06;;;22.86;72.85
36380;BME280;22411;53.016;18.632;2022-09-21T12:45:41;101336.16;;;21.54;84.68
36380;BME280;22411;53.016;18.632;2022-09-21T12:48:52;101340.97;;;21.59;85.66
36380;BME280;22411;53.016;18.632;2022-09-21T12:51:17;101330.59;;;21.57;83.79
36380;BME280;22411;53.016;18.632;2022-09-21T12:53:52;101329.88;;;22.15;82.13
36380;BME280;22411;53.016;18.632;2022-09-21T12:59:25;101321.56;;;20.27;86.89
36380;BME280;22411;53.016;18.632;2022-09-21T13:03:10;101318.63;;;19.28;94.11
36380;BME280;22411;53.016;18.632;2022-09-21T13:08:11;101308.69;;;19.69;91.80
36380;BME280;22411;53.016;18.632;2022-09-21T13:13:21;101311.69;;;19.83;85.04
36380;BME280;22411;53.016;18.632;2022-09-21T13:15:48;101317.97;;;17.98;95.94
36380;BME280;22411;53.016;18.632;2022-09-21T13:18:25;101303.69;;;18.32;97.77
36380;BME280;22411;53.016;18.632;2022-09-21T13:20:53;101301.50;;;18.46;99.92
36380;BME280;22411;53.016;18.632;2022-09-21T13:23:55;101299.16;;;18.63;97.68
36380;BME280;22411;53.016;18.632;2022-09-21T13:27:12;101296.84;;;18.79;90.32
36380;BME280;22411;53.016;18.632;2022-09-21T13:34:42;101301.13;;;18.99;84.03
36380;BME280;22411;53.016;18.632;2022-09-21T13:44:55;101290.56;;;17.51;87.19
36380;BME280;22411;53.016;18.632;2022-09-21T13:47:32;101284.16;;;17.44;88.58
36380;BME280;22411;53.016;18.632;2022-09-21T13:50:02;101287.75;;;18.04;85.75
36380;BME280;22411;53.016;18.632;2022-09-21T13:55:04;101289.75;;;17.60;84.08
36380;BME280;22411;53.016;18.632;2022-09-21T13:57:39;101288.53;;;17.64;84.97
36380;BME280;22411;53.016;18.632;2022-09-21T14:02:40;101298.47;;;17.09;85.98
36380;BME280;22411;53.016;18.632;2022-09-21T14:05:39;101295.03;;;17.91;82.23
36380;BME280;22411;53.016;18.632;2022-09-21T14:15:51;101290.28;;;19.69;73.72
36380;BME280;22411;53.016;18.632;2022-09-21T14:18:21;101288.09;;;19.64;68.10
36380;BME280;22411;53.016;18.632;2022-09-21T14:23:33;101287.63;;;19.31;71.06
36380;BME280;22411;53.016;18.632;2022-09-21T14:26:01;101286.19;;;19.00;69.37
36380;BME280;22411;53.016;18.632;2022-09-21T14:28:44;101285.88;;;18.54;69.02
36380;BME280;22411;53.016;18.632;2022-09-21T14:31:19;101289.91;;;17.89;72.58
36380;BME280;22411;53.016;18.632;2022-09-21T14:33:52;101288.19;;;17.48;73.96
36380;BME280;22411;53.016;18.632;2022-09-21T14:36:43;101290.25;;;18.06;74.54
36380;BME280;22411;53.016;18.632;2022-09-21T14:39:24;101289.47;;;19.02;71.38
36380;BME280;22411;53.016;18.632;2022-09-21T14:41:55;101287.91;;;19.28;65.96
36380;BME280;22411;53.016;18.632;2022-09-21T14:44:26;101289.50;;;19.49;64.76
36380;BME280;22411;53.016;18.632;2022-09-21T14:53:17;101291.56;;;20.91;61.99
36380;BME280;22411;53.016;18.632;2022-09-21T15:01:40;101283.81;;;21.33;61.16
36380;BME280;22411;53.016;18.632;2022-09-21T15:07:11;101296.66;;;22.05;58.24
36380;BME280;22411;53.016;18.632;2022-09-21T15:10:27;101300.13;;;21.63;57.17
36380;BME280;22411;53.016;18.632;2022-09-21T15:18:25;101306.22;;;21.11;64.86
36380;BME280;22411;53.016;18.632;2022-09-21T15:21:02;101301.88;;;21.28;64.92
36380;BME280;22411;53.016;18.632;2022-09-21T15:23:39;101303.16;;;21.24;66.26
36380;BME280;22411;53.016;18.632;2022-09-21T15:26:19;101299.78;;;20.88;68.32
36380;BME280;22411;53.016;18.632;2022-09-21T15:28:52;101305.22;;;20.23;72.22
36380;BME280;22411;53.016;18.632;2022-09-21T15:31:19;101302.75;;;19.67;75.97
36380;BME280;22411;53.016;18.632;2022-09-21T15:33:46;101302.63;;;19.58;78.92
36380;BME280;22411;53.016;18.632;2022-09-21T15:36:25;101301.50;;;19.98;78.87
36380;BME280;22411;53.016;18.632;2022-09-21T15:38:53;101311.38;;;20.14;76.06
36380;BME280;22411;53.016;18.632;2022-09-21T15:41:45;101316.28;;;19.72;78.07
36380;BME280;22411;53.016;18.632;2022-09-21T15:44:31;101315.13;;;19.37;80.90
36380;BME280;22411;53.016;18.632;2022-09-21T15:47:00;101311.94;;;19.43;80.75
36380;BME280;22411;53.016;18.632;2022-09-21T15:49:29;101308.69;;;19.69;80.28
36380;BME280;22411;53.016;18.632;2022-09-21T15:52:04;101311.19;;;19.98;79.82
36380;BME280;22411;53.016;18.632;2022-09-21T15:54:58;101316.44;;;20.25;77.49
36380;BME280;22411;53.016;18.632;2022-09-21T15:57:33;101323.88;;;20.57;76.01
36380;BME280;22411;53.016;18.632;2022-09-21T16:00:19;101319.28;;;20.59;72.04
36380;BME280;22411;53.016;18.632;2022-09-21T16:03:14;101329.53;;;20.62;72.27
36380;BME280;22411;53.016;18.632;2022-09-21T16:05:56;101332.06;;;20.54;71.51